Terminal Aerodrome Forecast
Issued by NWS

Home | Current Version | Previous Version | Text Only | Print | Product List | Glossary On
Versions: 1 2 3 4 5 6 7 8 9 10 11 12
000
FTUS45 KGJT 052335
TAFCNY
TAF
KCNY 052335Z 0600/0624 32009KT P6SM FEW250
      TEMPO 0600/0602 30010G20KT
     FM060200 35007KT P6SM FEW250
     FM060300 02007KT P6SM FEW250
     FM060500 06006KT P6SM SCT250
     FM062200 36005KT P6SM SCT200=

USA.gov is the U.S. government's official web portal to all federal, state and local government web resources and services.